Puntarenas, Costa Rica
Current Conditions -  °F | °C
As of 6:00 PM on Thursday 23 Oct 2014 (Local Time) from MRPV Reporting Station
Moderate Fog Moderate Fog  
Wind Chill: 72°   Ceiling: 1000
Heat Index: 72°   Visibility: 5mi
Dew Point: 68°   Wind: 6mph
Humidity: 88%   Direction: 300°WNW
Pressure: 30"   Gusts: NA
Location:  9.58°N, 84.5°W
Report Text: MRPV 240000Z 30005KT 8000 VCFG FEW007 BKN010 22/20 A3000 NOSIG
Loading
Personal Weather Stations






























Interactive Weather Map
Tropical Storm Tracking
New forecast layout! Learn more

10-Day Weather Forecast

Advertisements
Track Severe Weather on mobile